sensor_id;sensor_type;location;lat;lon;timestamp;pressure;altitude;pressure_sealevel;temperature;humidity
8451;BME280;4262;50.980;13.892;2023-04-19T03:33:08;50403.81;;;-142.97;32.69
8451;BME280;4262;50.980;13.892;2023-04-19T03:35:35;50380.44;;;-142.97;33.01
8451;BME280;4262;50.980;13.892;2023-04-19T03:38:08;50353.13;;;-142.97;33.93
8451;BME280;4262;50.980;13.892;2023-04-19T03:40:36;50380.44;;;-142.97;32.88
8451;BME280;4262;50.980;13.892;2023-04-19T03:43:04;50405.78;;;-142.97;32.37
8451;BME280;4262;50.980;13.892;2023-04-19T03:45:32;50409.66;;;-142.97;31.99
8451;BME280;4262;50.980;13.892;2023-04-19T03:48:00;50376.53;;;-142.97;32.44
8451;BME280;4262;50.980;13.892;2023-04-19T03:50:28;50384.31;;;-142.97;31.92
8451;BME280;4262;50.980;13.892;2023-04-19T03:52:55;50370.69;;;-142.97;32.89
8451;BME280;4262;50.980;13.892;2023-04-19T03:55:23;50384.31;;;-142.97;33.03
8451;BME280;4262;50.980;13.892;2023-04-19T03:57:50;50388.22;;;-142.97;32.84
8451;BME280;4262;50.980;13.892;2023-04-19T04:00:29;50376.53;;;-142.97;32.77
8451;BME280;4262;50.980;13.892;2023-04-19T04:02:58;50382.38;;;-142.97;32.43
8451;BME280;4262;50.980;13.892;2023-04-19T04:05:26;50384.31;;;-142.97;32.10
8451;BME280;4262;50.980;13.892;2023-04-19T04:07:54;50376.53;;;-142.97;32.00
8451;BME280;4262;50.980;13.892;2023-04-19T04:10:22;50409.66;;;-142.97;32.33
8451;BME280;4262;50.980;13.892;2023-04-19T04:12:49;50392.13;;;-142.97;31.90
8451;BME280;4262;50.980;13.892;2023-04-19T04:15:23;50384.31;;;-142.97;33.83
8451;BME280;4262;50.980;13.892;2023-04-19T04:17:52;50394.06;;;-142.97;33.21
8451;BME280;4262;50.980;13.892;2023-04-19T04:20:19;50360.94;;;-142.97;32.04
8451;BME280;4262;50.980;13.892;2023-04-19T04:22:47;50384.31;;;-142.97;31.80
8451;BME280;4262;50.980;13.892;2023-04-19T04:25:17;50386.28;;;-142.97;31.92
8451;BME280;4262;50.980;13.892;2023-04-19T04:27:46;50396.03;;;-142.97;31.10
8451;BME280;4262;50.980;13.892;2023-04-19T04:30:17;50380.44;;;-142.97;31.15
8451;BME280;4262;50.980;13.892;2023-04-19T04:32:44;50388.22;;;-142.97;31.12
8451;BME280;4262;50.980;13.892;2023-04-19T04:35:12;50392.13;;;-142.97;32.14
8451;BME280;4262;50.980;13.892;2023-04-19T04:37:46;50401.88;;;-142.97;31.31
8451;BME280;4262;50.980;13.892;2023-04-19T04:40:13;50386.28;;;-142.97;31.53
8451;BME280;4262;50.980;13.892;2023-04-19T04:42:43;50396.03;;;-142.97;31.34
8451;BME280;4262;50.980;13.892;2023-04-19T04:45:10;50374.56;;;-142.97;31.94
8451;BME280;4262;50.980;13.892;2023-04-19T04:47:40;50368.72;;;-142.97;31.61
8451;BME280;4262;50.980;13.892;2023-04-19T04:50:09;50347.28;;;-142.97;31.82
8451;BME280;4262;50.980;13.892;2023-04-19T04:52:37;50382.38;;;-142.97;31.20
8451;BME280;4262;50.980;13.892;2023-04-19T04:55:15;50392.13;;;-142.97;32.57
8451;BME280;4262;50.980;13.892;2023-04-19T04:57:44;50397.97;;;-142.97;32.79
8451;BME280;4262;50.980;13.892;2023-04-19T05:00:21;50366.78;;;-142.97;31.45
8451;BME280;4262;50.980;13.892;2023-04-19T05:03:01;50360.94;;;-142.97;30.93
8451;BME280;4262;50.980;13.892;2023-04-19T05:05:29;50419.41;;;-142.97;30.66
8451;BME280;4262;50.980;13.892;2023-04-19T05:07:56;50362.88;;;-142.97;30.61
8451;BME280;4262;50.980;13.892;2023-04-19T05:10:24;50376.53;;;-142.97;30.35
8451;BME280;4262;50.980;13.892;2023-04-19T05:12:54;50362.88;;;-142.97;30.15
8451;BME280;4262;50.980;13.892;2023-04-19T05:15:21;50366.78;;;-142.97;30.64
8451;BME280;4262;50.980;13.892;2023-04-19T05:17:52;50380.44;;;-142.97;30.08
8451;BME280;4262;50.980;13.892;2023-04-19T05:20:20;50355.09;;;-142.97;30.98
8451;BME280;4262;50.980;13.892;2023-04-19T05:22:56;50347.28;;;-142.97;31.67
8451;BME280;4262;50.980;13.892;2023-04-19T05:25:23;50382.38;;;-142.97;29.82
8451;BME280;4262;50.980;13.892;2023-04-19T05:27:51;50397.97;;;-142.97;29.96
8451;BME280;4262;50.980;13.892;2023-04-19T05:30:19;50372.63;;;-142.97;29.77
8451;BME280;4262;50.980;13.892;2023-04-19T05:32:49;50357.03;;;-142.97;30.07
8451;BME280;4262;50.980;13.892;2023-04-19T05:35:17;50368.72;;;-142.97;29.97
8451;BME280;4262;50.980;13.892;2023-04-19T05:37:46;50397.97;;;-142.97;29.50
8451;BME280;4262;50.980;13.892;2023-04-19T05:40:13;50358.97;;;-142.97;29.57
8451;BME280;4262;50.980;13.892;2023-04-19T05:42:41;50386.28;;;-142.97;28.98
8451;BME280;4262;50.980;13.892;2023-04-19T05:45:10;50388.22;;;-142.97;29.21
8451;BME280;4262;50.980;13.892;2023-04-19T05:47:39;50353.13;;;-142.97;28.87
8451;BME280;4262;50.980;13.892;2023-04-19T05:50:09;50386.28;;;-142.97;29.16
8451;BME280;4262;50.980;13.892;2023-04-19T05:52:42;50341.44;;;-142.97;28.25
8451;BME280;4262;50.980;13.892;2023-04-19T05:55:09;50392.13;;;-142.97;28.51
8451;BME280;4262;50.980;13.892;2023-04-19T05:57:41;50355.09;;;-142.97;28.39
8451;BME280;4262;50.980;13.892;2023-04-19T06:00:09;50405.78;;;-142.97;28.37
8451;BME280;4262;50.980;13.892;2023-04-19T06:02:57;50353.13;;;-142.97;27.83
8451;BME280;4262;50.980;13.892;2023-04-19T06:05:24;50397.97;;;-142.97;27.87
8451;BME280;4262;50.980;13.892;2023-04-19T06:07:50;50372.63;;;-142.97;27.93
8451;BME280;4262;50.980;13.892;2023-04-19T06:10:20;50370.69;;;-142.97;26.87
8451;BME280;4262;50.980;13.892;2023-04-19T06:12:48;50353.13;;;-142.97;27.90
8451;BME280;4262;50.980;13.892;2023-04-19T06:15:15;50318.03;;;-142.97;27.43
8451;BME280;4262;50.980;13.892;2023-04-19T06:17:42;50370.69;;;-142.97;27.50
8451;BME280;4262;50.980;13.892;2023-04-19T06:20:11;50364.81;;;-142.97;28.18
8451;BME280;4262;50.980;13.892;2023-04-19T06:22:43;50349.22;;;-142.97;27.36
8451;BME280;4262;50.980;13.892;2023-04-19T06:25:10;50362.88;;;-142.97;28.27
8451;BME280;4262;50.980;13.892;2023-04-19T06:27:37;50349.22;;;-142.97;28.01
8451;BME280;4262;50.980;13.892;2023-04-19T06:30:05;50308.28;;;-142.97;28.06
8451;BME280;4262;50.980;13.892;2023-04-19T06:32:33;50343.38;;;-142.97;26.95
8451;BME280;4262;50.980;13.892;2023-04-19T06:35:00;50337.53;;;-142.97;26.40
8451;BME280;4262;50.980;13.892;2023-04-19T06:37:32;50306.34;;;-142.97;25.92
8451;BME280;4262;50.980;13.892;2023-04-19T06:39:59;50353.13;;;-142.97;25.83
8451;BME280;4262;50.980;13.892;2023-04-19T06:42:27;50347.28;;;-142.97;25.88
8451;BME280;4262;50.980;13.892;2023-04-19T06:44:54;50314.13;;;-142.97;26.34
8451;BME280;4262;50.980;13.892;2023-04-19T06:47:21;50321.94;;;-142.97;27.61
8451;BME280;4262;50.980;13.892;2023-04-19T06:49:48;50325.84;;;-142.97;27.56
8451;BME280;4262;50.980;13.892;2023-04-19T06:52:15;50286.84;;;-142.97;26.96
8451;BME280;4262;50.980;13.892;2023-04-19T06:54:46;50333.63;;;-142.97;25.75
8451;BME280;4262;50.980;13.892;2023-04-19T06:57:13;50331.69;;;-142.97;25.78
8451;BME280;4262;50.980;13.892;2023-04-19T06:59:40;50210.81;;;-142.97;26.39
8451;BME280;4262;50.980;13.892;2023-04-19T07:02:08;50189.38;;;-142.97;25.04
8451;BME280;4262;50.980;13.892;2023-04-19T07:04:35;50226.41;;;-142.97;24.92
8451;BME280;4262;50.980;13.892;2023-04-19T07:07:04;50234.19;;;-142.97;24.75
8451;BME280;4262;50.980;13.892;2023-04-19T07:09:30;50222.50;;;-142.97;25.12
8451;BME280;4262;50.980;13.892;2023-04-19T07:12:00;50230.31;;;-142.97;25.26
8451;BME280;4262;50.980;13.892;2023-04-19T07:14:27;50208.84;;;-142.97;24.29
8451;BME280;4262;50.980;13.892;2023-04-19T07:16:54;50210.81;;;-142.97;23.92
8451;BME280;4262;50.980;13.892;2023-04-19T07:19:20;50204.97;;;-142.97;23.97
8451;BME280;4262;50.980;13.892;2023-04-19T07:21:49;50195.22;;;-142.97;23.63
8451;BME280;4262;50.980;13.892;2023-04-19T07:24:16;50242.00;;;-142.97;23.62
8451;BME280;4262;50.980;13.892;2023-04-19T07:26:43;50197.16;;;-142.97;23.17
8451;BME280;4262;50.980;13.892;2023-04-19T07:29:11;50199.13;;;-142.97;22.86
8451;BME280;4262;50.980;13.892;2023-04-19T07:31:38;50177.66;;;-142.97;22.28
8451;BME280;4262;50.980;13.892;2023-04-19T07:34:06;50195.22;;;-142.97;22.54
8451;BME280;4262;50.980;13.892;2023-04-19T07:36:34;50212.75;;;-142.97;22.49
8451;BME280;4262;50.980;13.892;2023-04-19T07:39:02;50187.41;;;-142.97;22.80
8451;BME280;4262;50.980;13.892;2023-04-19T07:41:30;50208.84;;;-142.97;22.52
8451;BME280;4262;50.980;13.892;2023-04-19T07:43:57;50185.47;;;-142.97;22.86
8451;BME280;4262;50.980;13.892;2023-04-19T07:46:26;50318.03;;;-142.97;22.88
8451;BME280;4262;50.980;13.892;2023-04-19T07:48:52;50177.66;;;-142.97;22.98
8451;BME280;4262;50.980;13.892;2023-04-19T07:51:20;50165.97;;;-142.97;22.35
8451;BME280;4262;50.980;13.892;2023-04-19T07:53:49;50179.63;;;-142.97;22.56
8451;BME280;4262;50.980;13.892;2023-04-19T07:56:15;50160.13;;;-142.97;22.13
8451;BME280;4262;50.980;13.892;2023-04-19T07:58:44;50208.84;;;-142.97;22.97
8451;BME280;4262;50.980;13.892;2023-04-19T08:01:10;50206.91;;;-142.97;23.73
8451;BME280;4262;50.980;13.892;2023-04-19T08:03:38;50195.22;;;-142.97;23.55
8451;BME280;4262;50.980;13.892;2023-04-19T08:06:07;50279.03;;;-142.97;22.97
8451;BME280;4262;50.980;13.892;2023-04-19T08:08:34;50160.13;;;-142.97;23.37
8451;BME280;4262;50.980;13.892;2023-04-19T08:11:01;50160.13;;;-142.97;23.75
8451;BME280;4262;50.980;13.892;2023-04-19T08:13:29;50177.66;;;-142.97;24.29
8451;BME280;4262;50.980;13.892;2023-04-19T08:15:59;50191.31;;;-142.97;22.93
8451;BME280;4262;50.980;13.892;2023-04-19T08:18:26;50197.16;;;-142.97;22.23
8451;BME280;4262;50.980;13.892;2023-04-19T08:20:55;50208.84;;;-142.97;23.34
8451;BME280;4262;50.980;13.892;2023-04-19T08:23:24;50183.50;;;-142.97;24.21
8451;BME280;4262;50.980;13.892;2023-04-19T08:25:51;50173.75;;;-142.97;24.31
8451;BME280;4262;50.980;13.892;2023-04-19T08:28:18;50150.38;;;-142.97;24.19
8451;BME280;4262;50.980;13.892;2023-04-19T08:30:44;50158.16;;;-142.97;23.49
8451;BME280;4262;50.980;13.892;2023-04-19T08:33:11;50158.16;;;-142.97;23.41
8451;BME280;4262;50.980;13.892;2023-04-19T08:35:38;50164.03;;;-142.97;22.94
8451;BME280;4262;50.980;13.892;2023-04-19T08:38:07;50164.03;;;-142.97;23.46
8451;BME280;4262;50.980;13.892;2023-04-19T08:40:34;50183.50;;;-142.97;23.97
8451;BME280;4262;50.980;13.892;2023-04-19T08:43:07;50165.97;;;-142.97;23.92
8451;BME280;4262;50.980;13.892;2023-04-19T08:45:34;50187.41;;;-142.97;24.14
8451;BME280;4262;50.980;13.892;2023-04-19T08:48:02;50148.41;;;-142.97;23.77
8451;BME280;4262;50.980;13.892;2023-04-19T08:50:28;50162.06;;;-142.97;23.65
8451;BME280;4262;50.980;13.892;2023-04-19T08:52:58;50097.72;;;-142.97;23.69
8451;BME280;4262;50.980;13.892;2023-04-19T08:55:26;50321.94;;;-142.97;24.12
8451;BME280;4262;50.980;13.892;2023-04-19T08:57:55;50329.72;;;-142.97;24.29
8451;BME280;4262;50.980;13.892;2023-04-19T09:00:22;50109.44;;;-142.97;24.21
8451;BME280;4262;50.980;13.892;2023-04-19T09:02:50;50249.81;;;-142.97;23.27
8451;BME280;4262;50.980;13.892;2023-04-19T09:05:17;50320.00;;;-142.97;22.82
8451;BME280;4262;50.980;13.892;2023-04-19T09:07:46;50337.53;;;-142.97;23.47
8451;BME280;4262;50.980;13.892;2023-04-19T09:10:15;50314.13;;;-142.97;24.75
8451;BME280;4262;50.980;13.892;2023-04-19T09:12:59;50109.44;;;-142.97;24.30
8451;BME280;4262;50.980;13.892;2023-04-19T09:15:35;50093.84;;;-142.97;23.51
8451;BME280;4262;50.980;13.892;2023-04-19T09:18:03;50302.44;;;-142.97;23.25
8451;BME280;4262;50.980;13.892;2023-04-19T09:20:35;50325.84;;;-142.97;23.18
8451;BME280;4262;50.980;13.892;2023-04-19T09:23:03;50179.63;;;-142.97;24.89
8451;BME280;4262;50.980;13.892;2023-04-19T09:25:31;50304.38;;;-142.97;24.00
8451;BME280;4262;50.980;13.892;2023-04-19T09:28:09;50318.03;;;-142.97;24.07
8451;BME280;4262;50.980;13.892;2023-04-19T09:30:37;50329.72;;;-142.97;25.08
8451;BME280;4262;50.980;13.892;2023-04-19T09:33:04;50308.28;;;-142.97;24.79
8451;BME280;4262;50.980;13.892;2023-04-19T09:35:42;50296.59;;;-142.97;24.97
8451;BME280;4262;50.980;13.892;2023-04-19T09:38:12;50296.59;;;-142.97;25.18
8451;BME280;4262;50.980;13.892;2023-04-19T09:40:39;50281.00;;;-142.97;25.26
8451;BME280;4262;50.980;13.892;2023-04-19T09:43:09;50325.84;;;-142.97;25.18
8451;BME280;4262;50.980;13.892;2023-04-19T09:45:40;50275.16;;;-142.97;24.98
8451;BME280;4262;50.980;13.892;2023-04-19T09:48:07;50279.03;;;-142.97;24.92
8451;BME280;4262;50.980;13.892;2023-04-19T09:50:35;50284.91;;;-142.97;24.78
8451;BME280;4262;50.980;13.892;2023-04-19T09:53:03;50195.22;;;-142.97;25.09
8451;BME280;4262;50.980;13.892;2023-04-19T09:55:30;50236.16;;;-142.97;25.08
8451;BME280;4262;50.980;13.892;2023-04-19T09:57:58;50316.09;;;-142.97;24.96
8451;BME280;4262;50.980;13.892;2023-04-19T10:00:26;50306.34;;;-142.97;24.60
8451;BME280;4262;50.980;13.892;2023-04-19T10:02:54;50312.19;;;-142.97;25.32
8451;BME280;4262;50.980;13.892;2023-04-19T10:05:24;50329.72;;;-142.97;24.87
8451;BME280;4262;50.980;13.892;2023-04-19T10:07:52;50294.63;;;-142.97;25.55
8451;BME280;4262;50.980;13.892;2023-04-19T10:10:21;50134.78;;;-142.97;25.47
8451;BME280;4262;50.980;13.892;2023-04-19T10:12:50;50290.75;;;-142.97;25.13
8451;BME280;4262;50.980;13.892;2023-04-19T10:15:19;50320.00;;;-142.97;25.85
8451;BME280;4262;50.980;13.892;2023-04-19T10:17:48;50353.13;;;-142.97;25.54
8451;BME280;4262;50.980;13.892;2023-04-19T10:20:19;50304.38;;;-142.97;26.72
8451;BME280;4262;50.980;13.892;2023-04-19T10:22:50;50318.03;;;-142.97;25.74
8451;BME280;4262;50.980;13.892;2023-04-19T10:25:17;50337.53;;;-142.97;25.98
8451;BME280;4262;50.980;13.892;2023-04-19T10:27:44;50349.22;;;-142.97;26.46
8451;BME280;4262;50.980;13.892;2023-04-19T10:30:17;50331.69;;;-142.97;26.72
8451;BME280;4262;50.980;13.892;2023-04-19T10:32:46;50310.25;;;-142.97;26.27
8451;BME280;4262;50.980;13.892;2023-04-19T10:35:20;50335.59;;;-142.97;26.24
8451;BME280;4262;50.980;13.892;2023-04-19T10:38:08;50321.94;;;-142.97;26.82
8451;BME280;4262;50.980;13.892;2023-04-19T10:40:56;50312.19;;;-142.97;26.90
8451;BME280;4262;50.980;13.892;2023-04-19T10:43:28;50321.94;;;-142.97;26.94
8451;BME280;4262;50.980;13.892;2023-04-19T10:45:58;50288.78;;;-142.97;26.73
8451;BME280;4262;50.980;13.892;2023-04-19T10:48:50;50284.91;;;-142.97;26.97
8451;BME280;4262;50.980;13.892;2023-04-19T10:51:26;50300.50;;;-142.97;26.32
8451;BME280;4262;50.980;13.892;2023-04-19T10:53:56;50282.94;;;-142.97;26.42
8451;BME280;4262;50.980;13.892;2023-04-19T10:56:58;50156.22;;;-142.97;26.02
8451;BME280;4262;50.980;13.892;2023-04-19T10:59:28;50277.09;;;-142.97;25.52
8451;BME280;4262;50.980;13.892;2023-04-19T11:01:56;50288.78;;;-142.97;25.48
8451;BME280;4262;50.980;13.892;2023-04-19T11:04:57;50257.59;;;-142.97;24.88
8451;BME280;4262;50.980;13.892;2023-04-19T11:07:27;50337.53;;;-142.97;24.77
8451;BME280;4262;50.980;13.892;2023-04-19T11:10:02;50281.00;;;-142.97;24.96
8451;BME280;4262;50.980;13.892;2023-04-19T11:12:28;50117.22;;;-142.97;24.55
8451;BME280;4262;50.980;13.892;2023-04-19T11:14:56;50259.56;;;-142.97;24.38
8451;BME280;4262;50.980;13.892;2023-04-19T11:17:26;50275.16;;;-142.97;25.01
8451;BME280;4262;50.980;13.892;2023-04-19T11:19:54;50284.91;;;-142.97;24.79
8451;BME280;4262;50.980;13.892;2023-04-19T11:22:24;50302.44;;;-142.97;25.62
8451;BME280;4262;50.980;13.892;2023-04-19T11:24:53;50316.09;;;-142.97;25.58
8451;BME280;4262;50.980;13.892;2023-04-19T11:27:20;50304.38;;;-142.97;25.60
8451;BME280;4262;50.980;13.892;2023-04-19T11:29:47;50282.94;;;-142.97;25.18
8451;BME280;4262;50.980;13.892;2023-04-19T11:32:14;50321.94;;;-142.97;25.86
8451;BME280;4262;50.980;13.892;2023-04-19T11:34:42;50290.75;;;-142.97;25.62
8451;BME280;4262;50.980;13.892;2023-04-19T11:37:10;50281.00;;;-142.97;25.77
8451;BME280;4262;50.980;13.892;2023-04-19T11:39:44;50308.28;;;-142.97;26.24
8451;BME280;4262;50.980;13.892;2023-04-19T11:42:17;50277.09;;;-142.97;26.39
8451;BME280;4262;50.980;13.892;2023-04-19T11:44:49;50265.41;;;-142.97;25.31
8451;BME280;4262;50.980;13.892;2023-04-19T11:47:16;50269.28;;;-142.97;25.57
8451;BME280;4262;50.980;13.892;2023-04-19T11:49:43;50318.03;;;-142.97;25.60
8451;BME280;4262;50.980;13.892;2023-04-19T11:52:10;50316.09;;;-142.97;25.60
8451;BME280;4262;50.980;13.892;2023-04-19T11:54:38;50331.69;;;-142.97;25.64
8451;BME280;4262;50.980;13.892;2023-04-19T11:57:07;50331.69;;;-142.97;26.49
8451;BME280;4262;50.980;13.892;2023-04-19T11:59:35;50325.84;;;-142.97;26.03
8451;BME280;4262;50.980;13.892;2023-04-19T12:02:06;50323.88;;;-142.97;26.19
8451;BME280;4262;50.980;13.892;2023-04-19T12:04:33;50341.44;;;-142.97;26.25
8451;BME280;4262;50.980;13.892;2023-04-19T12:07:04;50345.34;;;-142.97;26.68
8451;BME280;4262;50.980;13.892;2023-04-19T12:09:32;50323.88;;;-142.97;26.66
8451;BME280;4262;50.980;13.892;2023-04-19T12:12:00;50300.50;;;-142.97;26.65
8451;BME280;4262;50.980;13.892;2023-04-19T12:14:27;50296.59;;;-142.97;26.26
8451;BME280;4262;50.980;13.892;2023-04-19T12:17:09;50263.44;;;-142.97;26.54
8451;BME280;4262;50.980;13.892;2023-04-19T12:19:41;50281.00;;;-142.97;25.98
8451;BME280;4262;50.980;13.892;2023-04-19T12:22:11;50284.91;;;-142.97;26.32
8451;BME280;4262;50.980;13.892;2023-04-19T12:24:40;50292.69;;;-142.97;25.90
8451;BME280;4262;50.980;13.892;2023-04-19T12:27:08;50296.59;;;-142.97;25.98
8451;BME280;4262;50.980;13.892;2023-04-19T12:29:35;50312.19;;;-142.97;26.34
8451;BME280;4262;50.980;13.892;2023-04-19T12:32:02;50314.13;;;-142.97;26.17
8451;BME280;4262;50.980;13.892;2023-04-19T12:34:31;50321.94;;;-142.97;26.62
8451;BME280;4262;50.980;13.892;2023-04-19T12:36:58;50320.00;;;-142.97;26.75
8451;BME280;4262;50.980;13.892;2023-04-19T12:39:25;50286.84;;;-142.97;26.55
8451;BME280;4262;50.980;13.892;2023-04-19T12:41:53;50335.59;;;-142.97;26.41
8451;BME280;4262;50.980;13.892;2023-04-19T12:44:20;50282.94;;;-142.97;25.88
8451;BME280;4262;50.980;13.892;2023-04-19T12:46:47;50314.13;;;-142.97;26.27
8451;BME280;4262;50.980;13.892;2023-04-19T12:49:16;50302.44;;;-142.97;25.93
8451;BME280;4262;50.980;13.892;2023-04-19T12:51:45;50286.84;;;-142.97;25.57
8451;BME280;4262;50.980;13.892;2023-04-19T12:54:12;50320.00;;;-142.97;25.54
8451;BME280;4262;50.980;13.892;2023-04-19T12:56:39;50318.03;;;-142.97;25.16
8451;BME280;4262;50.980;13.892;2023-04-19T12:59:06;50310.25;;;-142.97;25.90
8451;BME280;4262;50.980;13.892;2023-04-19T13:01:33;50316.09;;;-142.97;26.17
8451;BME280;4262;50.980;13.892;2023-04-19T13:04:01;50290.75;;;-142.97;26.08
8451;BME280;4262;50.980;13.892;2023-04-19T13:06:29;50286.84;;;-142.97;26.05
8451;BME280;4262;50.980;13.892;2023-04-19T13:08:57;50300.50;;;-142.97;25.64
8451;BME280;4262;50.980;13.892;2023-04-19T13:11:24;50302.44;;;-142.97;25.66
8451;BME280;4262;50.980;13.892;2023-04-19T13:13:52;50320.00;;;-142.97;25.89
8451;BME280;4262;50.980;13.892;2023-04-19T13:16:19;50146.47;;;-142.97;25.30
8451;BME280;4262;50.980;13.892;2023-04-19T13:18:46;50150.38;;;-142.97;25.13
8451;BME280;4262;50.980;13.892;2023-04-19T13:21:15;50138.69;;;-142.97;24.96
8451;BME280;4262;50.980;13.892;2023-04-19T13:23:42;50238.09;;;-142.97;24.23
8451;BME280;4262;50.980;13.892;2023-04-19T13:26:11;50146.47;;;-142.97;24.67
8451;BME280;4262;50.980;13.892;2023-04-19T13:28:39;50136.72;;;-142.97;23.92
8451;BME280;4262;50.980;13.892;2023-04-19T13:31:06;50169.88;;;-142.97;23.66
8451;BME280;4262;50.980;13.892;2023-04-19T13:33:32;50150.38;;;-142.97;23.25
8451;BME280;4262;50.980;13.892;2023-04-19T13:36:01;50275.16;;;-142.97;23.82
8451;BME280;4262;50.980;13.892;2023-04-19T13:38:28;50144.53;;;-142.97;23.83
8451;BME280;4262;50.980;13.892;2023-04-19T13:40:55;50259.56;;;-142.97;24.96
8451;BME280;4262;50.980;13.892;2023-04-19T13:43:23;50171.81;;;-142.97;23.83
8451;BME280;4262;50.980;13.892;2023-04-19T13:45:50;50296.59;;;-142.97;23.84
8451;BME280;4262;50.980;13.892;2023-04-19T13:48:17;50325.84;;;-142.97;24.14
8451;BME280;4262;50.980;13.892;2023-04-19T13:50:43;50306.34;;;-142.97;24.16
8451;BME280;4262;50.980;13.892;2023-04-19T13:53:10;50335.59;;;-142.97;24.99
8451;BME280;4262;50.980;13.892;2023-04-19T13:55:37;50378.47;;;-142.97;26.39
8451;BME280;4262;50.980;13.892;2023-04-19T13:58:04;50325.84;;;-142.97;26.77
8451;BME280;4262;50.980;13.892;2023-04-19T14:00:32;50337.53;;;-142.97;26.68
8451;BME280;4262;50.980;13.892;2023-04-19T14:02:59;50333.63;;;-142.97;27.14
8451;BME280;4262;50.980;13.892;2023-04-19T14:05:25;50349.22;;;-142.97;26.80
8451;BME280;4262;50.980;13.892;2023-04-19T14:07:52;50310.25;;;-142.97;26.53
8451;BME280;4262;50.980;13.892;2023-04-19T14:10:19;50294.63;;;-142.97;26.61
8451;BME280;4262;50.980;13.892;2023-04-19T14:12:46;50316.09;;;-142.97;26.47
8451;BME280;4262;50.980;13.892;2023-04-19T14:15:14;50343.38;;;-142.97;26.75
8451;BME280;4262;50.980;13.892;2023-04-19T14:17:42;50323.88;;;-142.97;29.19
8451;BME280;4262;50.980;13.892;2023-04-19T14:20:09;50362.88;;;-142.97;30.77
8451;BME280;4262;50.980;13.892;2023-04-19T14:22:38;50308.28;;;-142.97;32.16
8451;BME280;4262;50.980;13.892;2023-04-19T14:25:05;50327.78;;;-142.97;32.77
8451;BME280;4262;50.980;13.892;2023-04-19T14:27:32;50357.03;;;-142.97;32.93
8451;BME280;4262;50.980;13.892;2023-04-19T14:29:59;50357.03;;;-142.97;33.20
8451;BME280;4262;50.980;13.892;2023-04-19T14:32:26;50325.84;;;-142.97;33.25
8451;BME280;4262;50.980;13.892;2023-04-19T14:34:54;50341.44;;;-142.97;32.45
8451;BME280;4262;50.980;13.892;2023-04-19T14:37:22;50339.47;;;-142.97;32.19
8451;BME280;4262;50.980;13.892;2023-04-19T14:39:49;50345.34;;;-142.97;31.72
8451;BME280;4262;50.980;13.892;2023-04-19T14:42:16;50331.69;;;-142.97;31.56
8451;BME280;4262;50.980;13.892;2023-04-19T14:44:42;50351.19;;;-142.97;31.99
8451;BME280;4262;50.980;13.892;2023-04-19T14:47:10;50355.09;;;-142.97;32.67
8451;BME280;4262;50.980;13.892;2023-04-19T14:49:36;50320.00;;;-142.97;32.96
8451;BME280;4262;50.980;13.892;2023-04-19T14:52:04;50321.94;;;-142.97;32.57
8451;BME280;4262;50.980;13.892;2023-04-19T14:54:32;50347.28;;;-142.97;31.63
8451;BME280;4262;50.980;13.892;2023-04-19T14:56:59;50341.44;;;-142.97;31.79
8451;BME280;4262;50.980;13.892;2023-04-19T14:59:26;50331.69;;;-142.97;32.49
8451;BME280;4262;50.980;13.892;2023-04-19T15:01:53;50353.13;;;-142.97;32.93
8451;BME280;4262;50.980;13.892;2023-04-19T15:04:20;50333.63;;;-142.97;32.29
8451;BME280;4262;50.980;13.892;2023-04-19T15:06:47;50370.69;;;-142.97;32.40
8451;BME280;4262;50.980;13.892;2023-04-19T15:09:15;50351.19;;;-142.97;32.20
8451;BME280;4262;50.980;13.892;2023-04-19T15:11:42;50323.88;;;-142.97;32.09
8451;BME280;4262;50.980;13.892;2023-04-19T15:14:08;50331.69;;;-142.97;31.39
8451;BME280;4262;50.980;13.892;2023-04-19T15:16:35;50349.22;;;-142.97;31.05
8451;BME280;4262;50.980;13.892;2023-04-19T15:19:02;50343.38;;;-142.97;30.98
8451;BME280;4262;50.980;13.892;2023-04-19T15:21:33;50327.78;;;-142.97;30.88
8451;BME280;4262;50.980;13.892;2023-04-19T15:23:59;50333.63;;;-142.97;31.34
8451;BME280;4262;50.980;13.892;2023-04-19T15:26:28;50347.28;;;-142.97;31.51
8451;BME280;4262;50.980;13.892;2023-04-19T15:28:54;50349.22;;;-142.97;31.37
8451;BME280;4262;50.980;13.892;2023-04-19T15:31:23;50353.13;;;-142.97;31.15
8451;BME280;4262;50.980;13.892;2023-04-19T15:33:50;50370.69;;;-142.97;31.53
8451;BME280;4262;50.980;13.892;2023-04-19T15:36:17;50339.47;;;-142.97;30.77
8451;BME280;4262;50.980;13.892;2023-04-19T15:38:44;50343.38;;;-142.97;30.70
8451;BME280;4262;50.980;13.892;2023-04-19T15:41:10;50345.34;;;-142.97;30.25
8451;BME280;4262;50.980;13.892;2023-04-19T15:43:38;50314.13;;;-142.97;29.92
8451;BME280;4262;50.980;13.892;2023-04-19T15:46:05;50347.28;;;-142.97;30.52
8451;BME280;4262;50.980;13.892;2023-04-19T15:48:31;50343.38;;;-142.97;30.35
8451;BME280;4262;50.980;13.892;2023-04-19T15:50:59;50349.22;;;-142.97;29.75
8451;BME280;4262;50.980;13.892;2023-04-19T15:53:27;50345.34;;;-142.97;29.59
8451;BME280;4262;50.980;13.892;2023-04-19T15:55:53;50331.69;;;-142.97;29.35
8451;BME280;4262;50.980;13.892;2023-04-19T15:58:20;50331.69;;;-142.97;28.66
8451;BME280;4262;50.980;13.892;2023-04-19T16:00:49;50345.34;;;-142.97;28.64
8451;BME280;4262;50.980;13.892;2023-04-19T16:03:16;50355.09;;;-142.97;29.09
8451;BME280;4262;50.980;13.892;2023-04-19T16:05:43;50343.38;;;-142.97;29.12
8451;BME280;4262;50.980;13.892;2023-04-19T16:08:10;50341.44;;;-142.97;29.19
8451;BME280;4262;50.980;13.892;2023-04-19T16:10:42;50323.88;;;-142.97;29.06
8451;BME280;4262;50.980;13.892;2023-04-19T16:13:10;50355.09;;;-142.97;28.97
8451;BME280;4262;50.980;13.892;2023-04-19T16:15:38;50370.69;;;-142.97;29.41
8451;BME280;4262;50.980;13.892;2023-04-19T16:18:06;50333.63;;;-142.97;29.54
8451;BME280;4262;50.980;13.892;2023-04-19T16:20:32;50358.97;;;-142.97;29.30
8451;BME280;4262;50.980;13.892;2023-04-19T16:22:59;50362.88;;;-142.97;28.83
8451;BME280;4262;50.980;13.892;2023-04-19T16:25:27;50341.44;;;-142.97;28.80
8451;BME280;4262;50.980;13.892;2023-04-19T16:27:55;50337.53;;;-142.97;28.67
8451;BME280;4262;50.980;13.892;2023-04-19T16:30:22;50337.53;;;-142.97;29.39